sensor_id;sensor_type;location;lat;lon;timestamp;pressure;altitude;pressure_sealevel;temperature;humidity
23253;BME280;11795;47.054;15.408;2024-01-16T00:00:09;96280;;;0.2;68.2
23253;BME280;11795;47.054;15.408;2024-01-16T00:02:08;96280;;;0.1;68.3
23253;BME280;11795;47.054;15.408;2024-01-16T00:04:08;96280;;;0.3;67.1
23253;BME280;11795;47.054;15.408;2024-01-16T00:06:10;96280;;;0.2;66.0
23253;BME280;11795;47.054;15.408;2024-01-16T00:08:08;96290;;;0.2;65.6
23253;BME280;11795;47.054;15.408;2024-01-16T00:10:09;96290;;;0.3;64.9
23253;BME280;11795;47.054;15.408;2024-01-16T00:12:08;96290;;;0.3;64.8
23253;BME280;11795;47.054;15.408;2024-01-16T00:14:09;96280;;;0.4;63.6
23253;BME280;11795;47.054;15.408;2024-01-16T00:16:08;96300;;;0.3;62.8
23253;BME280;11795;47.054;15.408;2024-01-16T00:18:08;96300;;;0.3;63.1
23253;BME280;11795;47.054;15.408;2024-01-16T00:20:09;96290;;;0.4;62.3
23253;BME280;11795;47.054;15.408;2024-01-16T00:22:09;96300;;;0.3;62.0
23253;BME280;11795;47.054;15.408;2024-01-16T00:24:08;96310;;;0.5;61.0
23253;BME280;11795;47.054;15.408;2024-01-16T00:26:19;96310;;;0.3;58.6
23253;BME280;11795;47.054;15.408;2024-01-16T00:28:08;96320;;;0.5;57.7
23253;BME280;11795;47.054;15.408;2024-01-16T00:30:09;96320;;;0.7;55.1
23253;BME280;11795;47.054;15.408;2024-01-16T00:32:08;96320;;;0.7;53.8
23253;BME280;11795;47.054;15.408;2024-01-16T00:34:08;96320;;;0.8;53.3
23253;BME280;11795;47.054;15.408;2024-01-16T00:36:09;96330;;;0.7;55.0
23253;BME280;11795;47.054;15.408;2024-01-16T00:38:08;96330;;;0.7;59.6
23253;BME280;11795;47.054;15.408;2024-01-16T00:40:09;96340;;;0.6;60.8
23253;BME280;11795;47.054;15.408;2024-01-16T00:42:08;96350;;;0.5;63.1
23253;BME280;11795;47.054;15.408;2024-01-16T00:44:08;96350;;;0.6;65.9
23253;BME280;11795;47.054;15.408;2024-01-16T00:46:08;96350;;;0.4;66.9
23253;BME280;11795;47.054;15.408;2024-01-16T00:48:10;96350;;;0.2;67.7
23253;BME280;11795;47.054;15.408;2024-01-16T00:50:09;96350;;;0.2;68.4
23253;BME280;11795;47.054;15.408;2024-01-16T00:52:09;96360;;;0.1;unknown
23253;BME280;11795;47.054;15.408;2024-01-16T00:54:10;96360;;;0.2;69.0
23253;BME280;11795;47.054;15.408;2024-01-16T00:56:08;96370;;;0.1;69.3
23253;BME280;11795;47.054;15.408;2024-01-16T00:58:08;96370;;;-0.1;70.0
23253;BME280;11795;47.054;15.408;2024-01-16T01:00:09;96380;;;0.1;69.6
23253;BME280;11795;47.054;15.408;2024-01-16T01:02:08;96380;;;-0.0;69.7
23253;BME280;11795;47.054;15.408;2024-01-16T01:04:08;96380;;;0.1;69.9
23253;BME280;11795;47.054;15.408;2024-01-16T01:06:08;96390;;;-0.1;69.8
23253;BME280;11795;47.054;15.408;2024-01-16T01:08:08;96390;;;-0.2;70.4
23253;BME280;11795;47.054;15.408;2024-01-16T01:10:09;96400;;;-0.1;70.1
23253;BME280;11795;47.054;15.408;2024-01-16T01:12:08;96400;;;-0.2;70.5
23253;BME280;11795;47.054;15.408;2024-01-16T01:14:09;96400;;;-0.2;70.4
23253;BME280;11795;47.054;15.408;2024-01-16T01:16:08;96410;;;-0.4;70.9
23253;BME280;11795;47.054;15.408;2024-01-16T01:18:08;96420;;;-0.3;70.8
23253;BME280;11795;47.054;15.408;2024-01-16T01:20:09;96420;;;-0.4;70.6
23253;BME280;11795;47.054;15.408;2024-01-16T01:22:08;96430;;;-0.5;71.1
23253;BME280;11795;47.054;15.408;2024-01-16T01:24:08;96430;;;-0.4;70.9
23253;BME280;11795;47.054;15.408;2024-01-16T01:26:08;96430;;;-0.5;71.3
23253;BME280;11795;47.054;15.408;2024-01-16T01:28:08;96430;;;-0.6;71.4
23253;BME280;11795;47.054;15.408;2024-01-16T01:30:09;96430;;;-0.4;70.9
23253;BME280;11795;47.054;15.408;2024-01-16T01:32:08;96430;;;-0.5;71.1
23253;BME280;11795;47.054;15.408;2024-01-16T01:34:08;96440;;;-0.3;70.5
23253;BME280;11795;47.054;15.408;2024-01-16T01:36:08;96440;;;-0.4;70.5
23253;BME280;11795;47.054;15.408;2024-01-16T01:38:08;96440;;;-0.5;70.6
23253;BME280;11795;47.054;15.408;2024-01-16T01:40:09;96440;;;-0.4;70.3
23253;BME280;11795;47.054;15.408;2024-01-16T01:42:08;96440;;;-0.5;70.7
23253;BME280;11795;47.054;15.408;2024-01-16T01:44:08;96440;;;-0.3;70.1
23253;BME280;11795;47.054;15.408;2024-01-16T01:46:09;96440;;;-0.5;70.1
23253;BME280;11795;47.054;15.408;2024-01-16T01:48:11;96440;;;-0.6;70.3
23253;BME280;11795;47.054;15.408;2024-01-16T01:50:09;96440;;;-0.6;69.9
23253;BME280;11795;47.054;15.408;2024-01-16T01:52:08;96440;;;-0.7;70.3
23253;BME280;11795;47.054;15.408;2024-01-16T01:54:09;96440;;;-0.6;70.1
23253;BME280;11795;47.054;15.408;2024-01-16T01:56:13;96450;;;-0.7;70.4
23253;BME280;11795;47.054;15.408;2024-01-16T01:58:09;96450;;;-0.8;70.7
23253;BME280;11795;47.054;15.408;2024-01-16T02:00:10;96450;;;-0.7;70.4
23253;BME280;11795;47.054;15.408;2024-01-16T02:02:10;96460;;;-0.9;70.8
23253;BME280;11795;47.054;15.408;2024-01-16T02:04:09;96460;;;-0.8;70.7
23253;BME280;11795;47.054;15.408;2024-01-16T02:06:09;96460;;;-0.8;70.5
23253;BME280;11795;47.054;15.408;2024-01-16T02:08:08;96460;;;-1.0;70.8
23253;BME280;11795;47.054;15.408;2024-01-16T02:10:09;96460;;;-0.9;70.6
23253;BME280;11795;47.054;15.408;2024-01-16T02:12:08;96460;;;-1.0;70.8
23253;BME280;11795;47.054;15.408;2024-01-16T02:14:09;96460;;;-0.9;70.6
23253;BME280;11795;47.054;15.408;2024-01-16T02:16:18;96460;;;-1.0;70.8
23253;BME280;11795;47.054;15.408;2024-01-16T02:18:08;96470;;;-1.1;71.0
23253;BME280;11795;47.054;15.408;2024-01-16T02:20:09;96480;;;-0.9;70.3
23253;BME280;11795;47.054;15.408;2024-01-16T02:22:12;96470;;;-1.1;70.3
23253;BME280;11795;47.054;15.408;2024-01-16T02:24:10;96470;;;-1.0;70.1
23253;BME280;11795;47.054;15.408;2024-01-16T02:26:08;96480;;;-1.2;70.5
23253;BME280;11795;47.054;15.408;2024-01-16T02:28:08;96480;;;-1.3;71.1
23253;BME280;11795;47.054;15.408;2024-01-16T02:30:08;96480;;;-1.2;70.6
23253;BME280;11795;47.054;15.408;2024-01-16T02:32:10;96480;;;-1.4;70.7
23253;BME280;11795;47.054;15.408;2024-01-16T02:34:08;96480;;;-1.2;70.5
23253;BME280;11795;47.054;15.408;2024-01-16T02:36:08;96490;;;-1.3;70.7
23253;BME280;11795;47.054;15.408;2024-01-16T02:38:08;96490;;;-1.4;70.8
23253;BME280;11795;47.054;15.408;2024-01-16T02:40:10;96490;;;-1.3;70.4
23253;BME280;11795;47.054;15.408;2024-01-16T02:42:08;96490;;;-1.5;70.6
23253;BME280;11795;47.054;15.408;2024-01-16T02:44:08;96490;;;-1.4;70.5
23253;BME280;11795;47.054;15.408;2024-01-16T02:46:09;96500;;;-1.5;70.5
23253;BME280;11795;47.054;15.408;2024-01-16T02:48:08;96500;;;-1.5;70.6
23253;BME280;11795;47.054;15.408;2024-01-16T02:50:09;96500;;;-1.4;70.5
23253;BME280;11795;47.054;15.408;2024-01-16T02:52:08;96500;;;-1.6;70.5
23253;BME280;11795;47.054;15.408;2024-01-16T02:54:08;96510;;;-1.4;70.2
23253;BME280;11795;47.054;15.408;2024-01-16T02:56:09;96510;;;-1.5;69.6
23253;BME280;11795;47.054;15.408;2024-01-16T02:58:09;96510;;;-1.6;69.7
23253;BME280;11795;47.054;15.408;2024-01-16T03:00:09;96510;;;-1.4;69.2
23253;BME280;11795;47.054;15.408;2024-01-16T03:02:08;96520;;;-1.5;68.8
23253;BME280;11795;47.054;15.408;2024-01-16T03:04:09;96520;;;-1.4;68.4
23253;BME280;11795;47.054;15.408;2024-01-16T03:06:08;96530;;;-1.6;68.7
23253;BME280;11795;47.054;15.408;2024-01-16T03:08:08;96530;;;-1.6;68.8
23253;BME280;11795;47.054;15.408;2024-01-16T03:10:08;96530;;;-1.5;68.3
23253;BME280;11795;47.054;15.408;2024-01-16T03:12:08;96530;;;-1.5;67.3
23253;BME280;11795;47.054;15.408;2024-01-16T03:14:08;96530;;;-1.4;67.1
23253;BME280;11795;47.054;15.408;2024-01-16T03:16:08;96540;;;-1.6;67.2
23253;BME280;11795;47.054;15.408;2024-01-16T03:18:08;96540;;;-1.7;67.3
23253;BME280;11795;47.054;15.408;2024-01-16T03:20:09;96550;;;-1.6;66.9
23253;BME280;11795;47.054;15.408;2024-01-16T03:22:08;96540;;;-1.8;67.2
23253;BME280;11795;47.054;15.408;2024-01-16T03:24:08;96540;;;-1.6;67.0
23253;BME280;11795;47.054;15.408;2024-01-16T03:26:12;96540;;;-1.7;66.7
23253;BME280;11795;47.054;15.408;2024-01-16T03:28:08;96550;;;-1.7;66.6
23253;BME280;11795;47.054;15.408;2024-01-16T03:30:09;96550;;;-1.7;65.9
23253;BME280;11795;47.054;15.408;2024-01-16T03:32:08;96550;;;-1.8;66.1
23253;BME280;11795;47.054;15.408;2024-01-16T03:34:09;96550;;;-1.7;66.0
23253;BME280;11795;47.054;15.408;2024-01-16T03:36:09;96550;;;-1.8;66.1
23253;BME280;11795;47.054;15.408;2024-01-16T03:38:08;96550;;;-1.8;66.0
23253;BME280;11795;47.054;15.408;2024-01-16T03:40:13;96550;;;-1.6;65.3
23253;BME280;11795;47.054;15.408;2024-01-16T03:42:08;96560;;;-1.7;65.1
23253;BME280;11795;47.054;15.408;2024-01-16T03:44:08;96560;;;-1.6;64.6
23253;BME280;11795;47.054;15.408;2024-01-16T03:46:10;96560;;;-1.7;64.2
23253;BME280;11795;47.054;15.408;2024-01-16T03:48:09;96560;;;-1.7;64.3
23253;BME280;11795;47.054;15.408;2024-01-16T03:50:09;96560;;;-1.6;63.6
23253;BME280;11795;47.054;15.408;2024-01-16T03:52:08;96560;;;-1.8;63.7
23253;BME280;11795;47.054;15.408;2024-01-16T03:54:08;96560;;;-1.6;63.8
23253;BME280;11795;47.054;15.408;2024-01-16T03:56:08;96560;;;-1.8;64.0
23253;BME280;11795;47.054;15.408;2024-01-16T03:58:08;96580;;;-1.9;64.2
23253;BME280;11795;47.054;15.408;2024-01-16T04:00:12;96580;;;-1.8;64.0
23253;BME280;11795;47.054;15.408;2024-01-16T04:02:08;96580;;;-1.9;64.2
23253;BME280;11795;47.054;15.408;2024-01-16T04:04:10;96580;;;-1.7;64.1
23253;BME280;11795;47.054;15.408;2024-01-16T04:06:15;96590;;;-1.8;64.2
23253;BME280;11795;47.054;15.408;2024-01-16T04:08:08;96580;;;-1.9;64.2
23253;BME280;11795;47.054;15.408;2024-01-16T04:10:09;96580;;;-1.9;64.0
23253;BME280;11795;47.054;15.408;2024-01-16T04:12:08;96590;;;-2.0;64.5
23253;BME280;11795;47.054;15.408;2024-01-16T04:14:09;96590;;;-1.9;64.6
23253;BME280;11795;47.054;15.408;2024-01-16T04:16:08;96590;;;-2.0;64.6
23253;BME280;11795;47.054;15.408;2024-01-16T04:18:08;96600;;;-2.1;64.9
23253;BME280;11795;47.054;15.408;2024-01-16T04:20:11;96600;;;-2.0;64.8
23253;BME280;11795;47.054;15.408;2024-01-16T04:22:09;96600;;;-2.2;65.1
23253;BME280;11795;47.054;15.408;2024-01-16T04:24:08;96590;;;-2.0;65.1
23253;BME280;11795;47.054;15.408;2024-01-16T04:26:08;96600;;;-2.2;65.4
23253;BME280;11795;47.054;15.408;2024-01-16T04:28:08;96600;;;-2.2;65.6
23253;BME280;11795;47.054;15.408;2024-01-16T04:30:08;96610;;;-2.1;65.4
23253;BME280;11795;47.054;15.408;2024-01-16T04:32:08;96610;;;-2.2;65.6
23253;BME280;11795;47.054;15.408;2024-01-16T04:34:08;96610;;;-2.1;65.5
23253;BME280;11795;47.054;15.408;2024-01-16T04:36:09;96620;;;-2.3;65.6
23253;BME280;11795;47.054;15.408;2024-01-16T04:38:08;96620;;;-2.3;66.0
23253;BME280;11795;47.054;15.408;2024-01-16T04:40:10;96620;;;-2.2;65.7
23253;BME280;11795;47.054;15.408;2024-01-16T04:42:08;96620;;;-2.3;65.7
23253;BME280;11795;47.054;15.408;2024-01-16T04:44:08;96630;;;-2.2;65.5
23253;BME280;11795;47.054;15.408;2024-01-16T04:46:08;96630;;;-2.3;65.6
23253;BME280;11795;47.054;15.408;2024-01-16T04:48:08;96630;;;-2.3;65.8
23253;BME280;11795;47.054;15.408;2024-01-16T04:50:08;96630;;;-2.2;65.4
23253;BME280;11795;47.054;15.408;2024-01-16T04:52:08;96640;;;-2.4;65.5
23253;BME280;11795;47.054;15.408;2024-01-16T04:54:08;96640;;;-2.3;65.4
23253;BME280;11795;47.054;15.408;2024-01-16T04:56:08;96630;;;-2.4;65.4
23253;BME280;11795;47.054;15.408;2024-01-16T04:58:09;96640;;;-2.5;65.7
23253;BME280;11795;47.054;15.408;2024-01-16T05:00:12;96640;;;-2.4;65.1
23253;BME280;11795;47.054;15.408;2024-01-16T05:02:08;96640;;;-2.5;65.2
23253;BME280;11795;47.054;15.408;2024-01-16T05:04:08;96650;;;-2.3;65.1
23253;BME280;11795;47.054;15.408;2024-01-16T05:06:12;96650;;;-2.4;65.0
23253;BME280;11795;47.054;15.408;2024-01-16T05:08:08;96650;;;-2.5;65.1
23253;BME280;11795;47.054;15.408;2024-01-16T05:10:10;96660;;;-2.5;65.2
23253;BME280;11795;47.054;15.408;2024-01-16T05:12:08;96660;;;-2.6;65.6
23253;BME280;11795;47.054;15.408;2024-01-16T05:14:08;96660;;;-2.4;65.3
23253;BME280;11795;47.054;15.408;2024-01-16T05:16:08;96660;;;-2.5;64.7
23253;BME280;11795;47.054;15.408;2024-01-16T05:18:08;96670;;;-2.5;64.7
23253;BME280;11795;47.054;15.408;2024-01-16T05:20:08;96670;;;-2.6;64.3
23253;BME280;11795;47.054;15.408;2024-01-16T05:22:09;96670;;;-2.7;64.9
23253;BME280;11795;47.054;15.408;2024-01-16T05:24:09;96670;;;-2.5;64.7
23253;BME280;11795;47.054;15.408;2024-01-16T05:26:09;96670;;;-2.5;64.3
23253;BME280;11795;47.054;15.408;2024-01-16T05:28:17;96670;;;-2.5;63.9
23253;BME280;11795;47.054;15.408;2024-01-16T05:30:09;96670;;;-2.5;63.7
23253;BME280;11795;47.054;15.408;2024-01-16T05:32:08;96670;;;-2.5;63.9
23253;BME280;11795;47.054;15.408;2024-01-16T05:34:09;96680;;;-2.4;63.4
23253;BME280;11795;47.054;15.408;2024-01-16T05:36:08;96680;;;-2.8;64.0
23253;BME280;11795;47.054;15.408;2024-01-16T05:38:08;96690;;;-2.9;64.7
23253;BME280;11795;47.054;15.408;2024-01-16T05:40:09;96690;;;-2.9;64.8
23253;BME280;11795;47.054;15.408;2024-01-16T05:42:08;96690;;;-2.9;65.1
23253;BME280;11795;47.054;15.408;2024-01-16T05:44:08;96690;;;-2.7;64.6
23253;BME280;11795;47.054;15.408;2024-01-16T05:46:08;96690;;;-2.8;64.7
23253;BME280;11795;47.054;15.408;2024-01-16T05:48:10;96690;;;-2.8;64.9
23253;BME280;11795;47.054;15.408;2024-01-16T05:50:08;96700;;;-2.6;64.4
23253;BME280;11795;47.054;15.408;2024-01-16T05:52:08;96700;;;-2.8;64.7
23253;BME280;11795;47.054;15.408;2024-01-16T05:54:08;96700;;;-2.7;64.8
23253;BME280;11795;47.054;15.408;2024-01-16T05:56:08;96710;;;-2.9;65.1
23253;BME280;11795;47.054;15.408;2024-01-16T05:58:08;96710;;;-2.9;65.4
23253;BME280;11795;47.054;15.408;2024-01-16T06:00:10;96700;;;-2.9;65.3
23253;BME280;11795;47.054;15.408;2024-01-16T06:02:08;96700;;;-2.9;65.4
23253;BME280;11795;47.054;15.408;2024-01-16T06:04:09;96710;;;-2.8;65.4
23253;BME280;11795;47.054;15.408;2024-01-16T06:06:09;96720;;;-3.0;65.5
23253;BME280;11795;47.054;15.408;2024-01-16T06:08:08;96730;;;-3.0;65.7
23253;BME280;11795;47.054;15.408;2024-01-16T06:10:11;96720;;;-2.9;65.4
23253;BME280;11795;47.054;15.408;2024-01-16T06:12:08;96720;;;-3.1;65.8
23253;BME280;11795;47.054;15.408;2024-01-16T06:14:08;96730;;;-2.9;65.8
23253;BME280;11795;47.054;15.408;2024-01-16T06:16:08;96730;;;-3.0;65.7
23253;BME280;11795;47.054;15.408;2024-01-16T06:18:08;96720;;;-3.0;65.8
23253;BME280;11795;47.054;15.408;2024-01-16T06:20:09;96720;;;-2.9;65.5
23253;BME280;11795;47.054;15.408;2024-01-16T06:22:08;96740;;;-3.0;65.9
23253;BME280;11795;47.054;15.408;2024-01-16T06:24:08;96740;;;-2.8;65.5
23253;BME280;11795;47.054;15.408;2024-01-16T06:26:08;96740;;;-2.9;65.5
23253;BME280;11795;47.054;15.408;2024-01-16T06:28:09;96740;;;-2.9;65.7
23253;BME280;11795;47.054;15.408;2024-01-16T06:30:09;96740;;;-2.8;65.4
23253;BME280;11795;47.054;15.408;2024-01-16T06:32:08;96740;;;-2.9;65.6
23253;BME280;11795;47.054;15.408;2024-01-16T06:34:08;96740;;;-2.8;65.4
23253;BME280;11795;47.054;15.408;2024-01-16T06:36:08;96750;;;-2.9;65.4
23253;BME280;11795;47.054;15.408;2024-01-16T06:38:08;96760;;;-3.0;65.6
23253;BME280;11795;47.054;15.408;2024-01-16T06:40:09;96760;;;-2.9;65.2
23253;BME280;11795;47.054;15.408;2024-01-16T06:42:08;96770;;;-2.9;65.4
23253;BME280;11795;47.054;15.408;2024-01-16T06:44:08;96760;;;-2.8;65.3
23253;BME280;11795;47.054;15.408;2024-01-16T06:46:10;96760;;;-2.9;65.0
23253;BME280;11795;47.054;15.408;2024-01-16T06:48:13;96750;;;-3.0;65.4
23253;BME280;11795;47.054;15.408;2024-01-16T06:50:08;96760;;;-2.9;65.2
23253;BME280;11795;47.054;15.408;2024-01-16T06:52:08;96770;;;-2.9;65.6
23253;BME280;11795;47.054;15.408;2024-01-16T06:54:08;96780;;;-2.7;64.8
23253;BME280;11795;47.054;15.408;2024-01-16T06:56:08;96770;;;-2.9;65.1
23253;BME280;11795;47.054;15.408;2024-01-16T06:58:08;96780;;;-3.0;65.6
23253;BME280;11795;47.054;15.408;2024-01-16T07:00:16;96780;;;-2.9;65.3
23253;BME280;11795;47.054;15.408;2024-01-16T07:02:08;96780;;;-3.0;65.5
23253;BME280;11795;47.054;15.408;2024-01-16T07:04:08;96790;;;-2.8;65.5
23253;BME280;11795;47.054;15.408;2024-01-16T07:06:08;96800;;;-2.8;65.4
23253;BME280;11795;47.054;15.408;2024-01-16T07:08:08;96800;;;-2.9;65.5
23253;BME280;11795;47.054;15.408;2024-01-16T07:10:08;96800;;;-2.8;65.4
23253;BME280;11795;47.054;15.408;2024-01-16T07:12:08;96800;;;-2.8;65.5
23253;BME280;11795;47.054;15.408;2024-01-16T07:14:09;96800;;;-2.5;65.0
23253;BME280;11795;47.054;15.408;2024-01-16T07:16:09;96810;;;-2.6;64.8
23253;BME280;11795;47.054;15.408;2024-01-16T07:18:08;96820;;;-2.7;64.8
23253;BME280;11795;47.054;15.408;2024-01-16T07:20:09;96820;;;-2.5;64.6
23253;BME280;11795;47.054;15.408;2024-01-16T07:22:09;96820;;;-2.6;64.8
23253;BME280;11795;47.054;15.408;2024-01-16T07:24:08;96820;;;-2.3;64.4
23253;BME280;11795;47.054;15.408;2024-01-16T07:26:08;96820;;;-2.4;64.2
23253;BME280;11795;47.054;15.408;2024-01-16T07:28:08;96830;;;-2.4;64.4
23253;BME280;11795;47.054;15.408;2024-01-16T07:30:09;96830;;;-2.3;63.9
23253;BME280;11795;47.054;15.408;2024-01-16T07:32:08;96830;;;-2.3;64.2
23253;BME280;11795;47.054;15.408;2024-01-16T07:34:08;96830;;;-2.2;64.2
23253;BME280;11795;47.054;15.408;2024-01-16T07:36:09;96840;;;-2.3;64.3
23253;BME280;11795;47.054;15.408;2024-01-16T07:38:08;96840;;;-2.3;64.6
23253;BME280;11795;47.054;15.408;2024-01-16T07:40:10;96840;;;-2.2;64.4
23253;BME280;11795;47.054;15.408;2024-01-16T07:42:08;96850;;;-2.2;64.7
23253;BME280;11795;47.054;15.408;2024-01-16T07:44:08;96850;;;-2.0;64.6
23253;BME280;11795;47.054;15.408;2024-01-16T07:46:08;96850;;;-2.1;64.5
23253;BME280;11795;47.054;15.408;2024-01-16T07:48:08;96850;;;-2.0;64.6
23253;BME280;11795;47.054;15.408;2024-01-16T07:50:09;96860;;;-1.9;64.1
23253;BME280;11795;47.054;15.408;2024-01-16T07:52:08;96860;;;-2.0;64.4
23253;BME280;11795;47.054;15.408;2024-01-16T07:54:09;96860;;;-1.8;64.3
23253;BME280;11795;47.054;15.408;2024-01-16T07:56:09;96860;;;-1.9;64.2
23253;BME280;11795;47.054;15.408;2024-01-16T07:58:11;96870;;;-1.8;64.4
23253;BME280;11795;47.054;15.408;2024-01-16T08:00:10;96860;;;-1.7;64.1
23253;BME280;11795;47.054;15.408;2024-01-16T08:02:09;96870;;;-1.8;64.6
23253;BME280;11795;47.054;15.408;2024-01-16T08:04:08;96870;;;-1.5;64.3
23253;BME280;11795;47.054;15.408;2024-01-16T08:06:08;96870;;;-1.7;64.5
23253;BME280;11795;47.054;15.408;2024-01-16T08:08:08;96870;;;-1.7;64.8
23253;BME280;11795;47.054;15.408;2024-01-16T08:10:08;96870;;;-1.6;64.6
23253;BME280;11795;47.054;15.408;2024-01-16T08:28:09;96880;;;-1.1;63.5
23253;BME280;11795;47.054;15.408;2024-01-16T08:30:09;96880;;;-0.9;62.8
23253;BME280;11795;47.054;15.408;2024-01-16T08:32:08;96880;;;-0.9;62.1
23253;BME280;11795;47.054;15.408;2024-01-16T08:34:08;96880;;;-0.6;62.0
23253;BME280;11795;47.054;15.408;2024-01-16T08:36:08;96880;;;-0.7;61.9
23253;BME280;11795;47.054;15.408;2024-01-16T08:38:08;96880;;;-0.6;61.8
23253;BME280;11795;47.054;15.408;2024-01-16T08:40:09;96880;;;-0.3;61.4
23253;BME280;11795;47.054;15.408;2024-01-16T08:42:08;96880;;;-0.3;61.2
23253;BME280;11795;47.054;15.408;2024-01-16T08:44:08;96880;;;0.0;60.7
23253;BME280;11795;47.054;15.408;2024-01-16T08:46:08;96870;;;0.1;60.2
23253;BME280;11795;47.054;15.408;2024-01-16T08:48:08;96870;;;0.3;59.5
23253;BME280;11795;47.054;15.408;2024-01-16T08:50:08;96870;;;0.9;58.4
23253;BME280;11795;47.054;15.408;2024-01-16T08:52:09;96870;;;1.3;56.8
23253;BME280;11795;47.054;15.408;2024-01-16T08:54:08;96870;;;2.1;55.3
23253;BME280;11795;47.054;15.408;2024-01-16T08:58:08;96860;;;3.5;51.5
23253;BME280;11795;47.054;15.408;2024-01-16T09:00:09;96860;;;4.3;49.1
23253;BME280;11795;47.054;15.408;2024-01-16T09:02:08;96860;;;4.7;48.0
23253;BME280;11795;47.054;15.408;2024-01-16T09:04:08;96860;;;5.1;48.4
23253;BME280;11795;47.054;15.408;2024-01-16T09:06:08;96860;;;5.3;47.4
23253;BME280;11795;47.054;15.408;2024-01-16T09:08:08;96860;;;5.4;47.1
23253;BME280;11795;47.054;15.408;2024-01-16T09:10:09;96860;;;5.5;47.0
23253;BME280;11795;47.054;15.408;2024-01-16T09:12:08;96860;;;5.4;46.4
23253;BME280;11795;47.054;15.408;2024-01-16T09:14:08;96860;;;5.2;43.8
23253;BME280;11795;47.054;15.408;2024-01-16T09:16:08;96870;;;4.6;44.0
23253;BME280;11795;47.054;15.408;2024-01-16T09:18:08;96860;;;4.6;45.8
23253;BME280;11795;47.054;15.408;2024-01-16T09:20:09;96870;;;4.8;46.2
23253;BME280;11795;47.054;15.408;2024-01-16T09:22:08;96870;;;4.9;45.3
23253;BME280;11795;47.054;15.408;2024-01-16T09:24:08;96870;;;5.2;45.2
23253;BME280;11795;47.054;15.408;2024-01-16T09:26:08;96870;;;5.2;44.5
23253;BME280;11795;47.054;15.408;2024-01-16T09:28:08;96870;;;5.3;44.5
23253;BME280;11795;47.054;15.408;2024-01-16T09:30:09;96870;;;5.5;43.8
23253;BME280;11795;47.054;15.408;2024-01-16T09:32:08;96870;;;5.5;43.3
23253;BME280;11795;47.054;15.408;2024-01-16T09:34:08;96870;;;5.7;43.6
23253;BME280;11795;47.054;15.408;2024-01-16T09:36:08;96870;;;5.6;41.4
23253;BME280;11795;47.054;15.408;2024-01-16T09:38:09;96870;;;5.7;42.2
23253;BME280;11795;47.054;15.408;2024-01-16T09:40:10;96880;;;5.9;41.8
23253;BME280;11795;47.054;15.408;2024-01-16T09:42:08;96880;;;5.9;41.9
23253;BME280;11795;47.054;15.408;2024-01-16T09:44:08;96880;;;6.1;42.0
23253;BME280;11795;47.054;15.408;2024-01-16T09:46:10;96880;;;6.2;41.6
23253;BME280;11795;47.054;15.408;2024-01-16T09:48:09;96880;;;6.1;41.0
23253;BME280;11795;47.054;15.408;2024-01-16T09:50:08;96880;;;5.8;41.7
23253;BME280;11795;47.054;15.408;2024-01-16T09:52:08;96880;;;5.9;43.0
23253;BME280;11795;47.054;15.408;2024-01-16T09:54:12;96880;;;6.2;42.9
23253;BME280;11795;47.054;15.408;2024-01-16T09:56:14;96870;;;6.3;42.6
23253;BME280;11795;47.054;15.408;2024-01-16T09:58:10;96870;;;6.5;41.9
23253;BME280;11795;47.054;15.408;2024-01-16T10:00:11;96860;;;6.8;40.5
23253;BME280;11795;47.054;15.408;2024-01-16T10:02:11;96860;;;6.9;40.8
23253;BME280;11795;47.054;15.408;2024-01-16T10:04:08;96860;;;7.1;39.1
23253;BME280;11795;47.054;15.408;2024-01-16T10:06:08;96860;;;7.1;39.5
23253;BME280;11795;47.054;15.408;2024-01-16T10:08:08;96850;;;7.1;38.7
23253;BME280;11795;47.054;15.408;2024-01-16T10:10:09;96850;;;7.3;37.5
23253;BME280;11795;47.054;15.408;2024-01-16T10:12:08;96850;;;7.2;37.7
23253;BME280;11795;47.054;15.408;2024-01-16T10:14:08;96850;;;7.4;38.2
23253;BME280;11795;47.054;15.408;2024-01-16T10:16:08;96850;;;7.2;38.2
23253;BME280;11795;47.054;15.408;2024-01-16T10:18:22;96840;;;7.3;37.1
23253;BME280;11795;47.054;15.408;2024-01-16T10:20:10;96840;;;7.4;36.7
23253;BME280;11795;47.054;15.408;2024-01-16T10:22:08;96830;;;7.4;37.4
23253;BME280;11795;47.054;15.408;2024-01-16T10:24:12;96820;;;7.6;37.2
23253;BME280;11795;47.054;15.408;2024-01-16T10:26:09;96830;;;7.7;36.8
23253;BME280;11795;47.054;15.408;2024-01-16T10:28:09;96820;;;7.8;35.8
23253;BME280;11795;47.054;15.408;2024-01-16T10:30:09;96830;;;8.1;35.6
23253;BME280;11795;47.054;15.408;2024-01-16T10:32:08;96830;;;8.0;36.0
23253;BME280;11795;47.054;15.408;2024-01-16T10:34:19;96830;;;8.2;36.0
23253;BME280;11795;47.054;15.408;2024-01-16T10:36:09;96820;;;8.2;34.2
23253;BME280;11795;47.054;15.408;2024-01-16T10:38:08;96820;;;8.0;33.7
23253;BME280;11795;47.054;15.408;2024-01-16T10:40:08;96820;;;8.2;34.6
23253;BME280;11795;47.054;15.408;2024-01-16T10:42:08;96830;;;8.3;34.2
23253;BME280;11795;47.054;15.408;2024-01-16T10:44:08;96820;;;8.6;32.9
23253;BME280;11795;47.054;15.408;2024-01-16T10:46:10;96820;;;8.6;31.3
23253;BME280;11795;47.054;15.408;2024-01-16T10:48:08;96820;;;8.6;32.0
23253;BME280;11795;47.054;15.408;2024-01-16T10:50:09;96820;;;8.6;31.7
23253;BME280;11795;47.054;15.408;2024-01-16T10:52:09;96820;;;8.6;31.1
23253;BME280;11795;47.054;15.408;2024-01-16T10:54:12;96820;;;8.8;31.2
23253;BME280;11795;47.054;15.408;2024-01-16T10:56:10;96820;;;8.9;30.9
23253;BME280;11795;47.054;15.408;2024-01-16T10:58:09;96810;;;8.8;29.1
23253;BME280;11795;47.054;15.408;2024-01-16T11:00:12;96810;;;8.7;29.3
23253;BME280;11795;47.054;15.408;2024-01-16T11:02:10;96800;;;8.9;30.0
23253;BME280;11795;47.054;15.408;2024-01-16T11:04:09;96800;;;9.1;30.2
23253;BME280;11795;47.054;15.408;2024-01-16T11:06:09;96800;;;9.1;28.9
23253;BME280;11795;47.054;15.408;2024-01-16T11:08:08;96790;;;9.2;29.8
23253;BME280;11795;47.054;15.408;2024-01-16T11:10:09;96790;;;9.6;30.2
23253;BME280;11795;47.054;15.408;2024-01-16T11:12:08;96790;;;9.9;30.1
23253;BME280;11795;47.054;15.408;2024-01-16T11:14:10;96790;;;10.0;28.8
23253;BME280;11795;47.054;15.408;2024-01-16T11:16:10;96790;;;10.3;29.1
23253;BME280;11795;47.054;15.408;2024-01-16T11:18:09;96790;;;10.2;28.0
23253;BME280;11795;47.054;15.408;2024-01-16T11:20:11;96790;;;10.4;28.3
23253;BME280;11795;47.054;15.408;2024-01-16T11:22:09;96780;;;10.1;28.0
23253;BME280;11795;47.054;15.408;2024-01-16T11:24:08;96780;;;10.2;28.3
23253;BME280;11795;47.054;15.408;2024-01-16T11:26:24;96780;;;10.3;28.7
23253;BME280;11795;47.054;15.408;2024-01-16T11:28:08;96780;;;10.2;27.9
23253;BME280;11795;47.054;15.408;2024-01-16T11:30:09;96780;;;10.5;28.3